Crateus, Brazil
Current Conditions -  °F | °C
As of 12:00 PM on Thursday 30 Oct 2014 (Local Time) from SBTE Reporting Station
Scattered Clouds Scattered Clouds  
Wind Chill: 97°   Ceiling: Unl
Heat Index: 97°   Visibility: 6mi
Dew Point: 59°   Wind: 8mph
Humidity: 28%   Direction: 120°ESE
Pressure: 29.83"   Gusts: NA
Location:  5.18°S, 40.68°W
Report Text: SBTE 301500Z 12007KT 9999 SCT030 36/15 Q1010
Loading
Personal Weather Stations






























Interactive Weather Map
Tropical Storm Tracking
New forecast layout! Learn more

10-Day Weather Forecast

Advertisements
Track Severe Weather on mobile